Time;durP1;ratioP1;P1;durP2;ratioP2;P2;SDS_P1;SDS_P2;PMS_P1;PMS_P2;Temp;Humidity;BMP_temperature;BMP_pressure;BME280_temperature;BME280_humidity;BME280_pressure;Samples;Min_cycle;Max_cycle;Signal;HPM_P1;HPM_P2
2023/10/27 00:01:04;;;;;;;30.83;16.90;;;11.70;99.90;;;;;;5019495;28;20442;-66
2023/10/27 00:03:34;;;;;;;27.07;14.33;;;11.70;99.90;;;;;;5019505;28;20497;-66
2023/10/27 00:06:00;;;;;;;42.30;15.10;;;11.70;99.90;;;;;;5019272;28;20519;-63
2023/10/27 00:08:27;;;;;;;34.93;16.17;;;11.70;99.90;;;;;;5019034;28;20457;-64
2023/10/27 00:10:55;;;;;;;30.60;16.07;;;11.70;99.90;;;;;;5019701;28;20538;-64
2023/10/27 00:13:22;;;;;;;29.60;14.10;;;11.70;99.90;;;;;;5019737;28;20434;-58
2023/10/27 00:15:48;;;;;;;32.40;15.43;;;11.70;99.90;;;;;;5019297;28;20446;-64
2023/10/27 00:18:15;;;;;;;34.73;15.30;;;11.70;99.90;;;;;;5019264;28;20438;-65
2023/10/27 00:20:44;;;;;;;29.07;14.77;;;11.70;99.90;;;;;;5019470;28;20520;-65
2023/10/27 00:23:15;;;;;;;30.67;16.33;;;11.70;99.90;;;;;;5018818;28;20505;-63
2023/10/27 00:25:41;;;;;;;32.47;16.20;;;11.70;99.90;;;;;;5018991;28;20434;-61
2023/10/27 00:28:08;;;;;;;30.00;16.63;;;11.70;99.90;;;;;;5018917;28;20470;-63
2023/10/27 00:30:35;;;;;;;31.60;17.03;;;11.70;99.90;;;;;;5019390;28;20425;-66
2023/10/27 00:33:02;;;;;;;35.80;16.63;;;11.70;99.90;;;;;;5019071;28;20453;-56
2023/10/27 00:35:31;;;;;;;31.13;15.33;;;11.70;99.90;;;;;;5018923;28;21127;-61
2023/10/27 00:38:00;;;;;;;46.50;16.43;;;11.70;99.90;;;;;;5018341;28;20430;-63
2023/10/27 00:40:27;;;;;;;34.47;14.70;;;11.70;99.90;;;;;;5018648;28;20514;-63
2023/10/27 00:42:57;;;;;;;37.90;15.70;;;11.70;99.90;;;;;;5018232;28;20466;-62
2023/10/27 00:45:24;;;;;;;30.50;16.27;;;11.70;99.90;;;;;;5018190;28;20441;-65
2023/10/27 00:47:51;;;;;;;29.90;15.37;;;11.70;99.90;;;;;;5018080;28;20462;-66
2023/10/27 00:50:19;;;;;;;30.97;15.83;;;11.70;99.90;;;;;;5017885;28;20474;-65
2023/10/27 00:52:46;;;;;;;32.17;15.97;;;11.70;99.90;;;;;;5017825;28;20466;-65
2023/10/27 00:55:14;;;;;;;32.97;16.80;;;11.60;99.90;;;;;;5017939;28;20430;-68
2023/10/27 00:57:42;;;;;;;35.37;15.43;;;11.60;99.90;;;;;;5017505;28;20442;-64
2023/10/27 01:00:10;;;;;;;29.70;16.30;;;11.60;99.90;;;;;;5016458;28;20442;-66
2023/10/27 01:02:37;;;;;;;34.17;15.70;;;11.70;99.90;;;;;;5017701;28;20446;-66
2023/10/27 01:05:04;;;;;;;31.23;15.37;;;11.70;99.90;;;;;;5017063;28;20486;-61
2023/10/27 01:07:31;;;;;;;36.37;15.10;;;11.60;99.90;;;;;;5016730;28;20454;-62
2023/10/27 01:09:58;;;;;;;32.30;16.40;;;11.70;99.90;;;;;;5017849;28;20481;-66
2023/10/27 01:12:27;;;;;;;26.00;13.87;;;11.70;99.90;;;;;;5017567;28;20453;-68
2023/10/27 01:14:53;;;;;;;29.00;13.80;;;11.70;99.90;;;;;;5017508;28;20434;-65
2023/10/27 01:17:20;;;;;;;33.37;14.53;;;11.70;99.90;;;;;;5016952;28;20546;-64
2023/10/27 01:19:47;;;;;;;26.17;12.70;;;11.70;99.90;;;;;;5017627;28;20430;-63
2023/10/27 01:22:15;;;;;;;28.13;12.40;;;11.70;99.90;;;;;;5017936;28;20446;-62
2023/10/27 01:24:43;;;;;;;34.33;16.53;;;11.60;99.90;;;;;;5017831;28;20485;-66
2023/10/27 01:27:10;;;;;;;30.43;13.43;;;11.70;99.90;;;;;;5017698;28;20453;-66
2023/10/27 01:29:37;;;;;;;27.50;14.83;;;11.60;99.90;;;;;;5016337;28;20474;-63
2023/10/27 01:32:04;;;;;;;30.83;14.63;;;11.60;99.90;;;;;;5017362;28;20443;-62
2023/10/27 01:34:31;;;;;;;37.53;16.97;;;11.60;99.90;;;;;;5017172;28;20442;-64
2023/10/27 01:36:58;;;;;;;31.67;14.77;;;11.70;99.90;;;;;;5017598;28;20461;-61
2023/10/27 01:39:25;;;;;;;37.20;15.00;;;11.70;99.90;;;;;;5017990;28;20434;-62
2023/10/27 01:41:53;;;;;;;29.17;14.10;;;11.70;99.90;;;;;;5017277;28;20458;-60
2023/10/27 01:44:20;;;;;;;29.03;15.00;;;11.70;99.90;;;;;;5016863;28;20481;-64
2023/10/27 01:46:49;;;;;;;31.20;14.70;;;11.60;99.90;;;;;;5016230;28;20446;-62
2023/10/27 01:49:16;;;;;;;33.57;14.90;;;11.60;99.90;;;;;;5016406;28;20441;-60
2023/10/27 01:51:46;;;;;;;32.70;13.90;;;11.60;99.90;;;;;;5016680;28;20911;-64
2023/10/27 01:54:13;;;;;;;33.00;14.50;;;11.60;99.90;;;;;;5016486;28;20478;-62
2023/10/27 01:56:40;;;;;;;34.23;14.07;;;11.60;99.90;;;;;;5016316;28;20445;-64
2023/10/27 01:59:07;;;;;;;28.10;13.73;;;11.60;99.90;;;;;;5015377;28;20465;-62
2023/10/27 02:01:34;;;;;;;37.60;16.13;;;11.60;99.90;;;;;;5015876;28;20481;-64
2023/10/27 02:04:01;;;;;;;31.27;13.83;;;11.60;99.90;;;;;;5015822;28;20477;-63
2023/10/27 02:06:28;;;;;;;29.37;14.73;;;11.60;99.90;;;;;;5015176;28;20473;-67
2023/10/27 02:08:55;;;;;;;24.10;12.93;;;11.60;99.90;;;;;;5016110;28;20462;-65
2023/10/27 02:11:23;;;;;;;35.50;15.37;;;11.60;99.90;;;;;;5016181;28;20442;-65
2023/10/27 02:13:50;;;;;;;30.90;14.23;;;11.60;99.90;;;;;;5016155;28;20504;-60
2023/10/27 02:16:18;;;;;;;32.47;14.23;;;11.60;99.90;;;;;;5016785;28;20461;-59
2023/10/27 02:18:45;;;;;;;31.27;14.80;;;11.60;99.90;;;;;;5016267;28;20458;-64
2023/10/27 02:21:12;;;;;;;30.37;15.13;;;11.50;99.90;;;;;;5016451;28;20441;-65
2023/10/27 02:23:39;;;;;;;32.60;14.53;;;11.60;99.90;;;;;;5016954;28;20485;-65
2023/10/27 02:26:05;;;;;;;27.93;13.60;;;11.60;99.90;;;;;;5017171;28;20504;-63
2023/10/27 02:28:37;;;;;;;28.43;13.27;;;11.60;99.90;;;;;;5016765;28;20430;-61
2023/10/27 02:31:04;;;;;;;31.20;13.90;;;11.60;99.90;;;;;;5017259;28;20462;-59
2023/10/27 02:33:32;;;;;;;30.20;15.70;;;11.60;99.90;;;;;;5017355;28;20461;-61
2023/10/27 02:36:02;;;;;;;33.03;14.53;;;11.60;99.90;;;;;;5016606;28;20454;-66
2023/10/27 02:38:37;;;;;;;25.63;13.63;;;11.60;99.90;;;;;;5016466;28;20476;-64
2023/10/27 02:41:13;;;;;;;31.80;14.67;;;12.10;99.90;;;;;;5016537;28;20418;-64
2023/10/27 02:43:40;;;;;;;25.90;12.90;;;11.60;99.90;;;;;;5016198;28;20489;-63
2023/10/27 02:46:07;;;;;;;22.70;12.67;;;11.60;99.90;;;;;;5016761;28;20419;-64
2023/10/27 02:48:35;;;;;;;29.50;13.50;;;11.60;99.90;;;;;;5016339;28;20433;-64
2023/10/27 02:51:02;;;;;;;22.90;12.50;;;11.60;99.90;;;;;;5015607;28;20450;-65
2023/10/27 02:53:29;;;;;;;23.83;13.03;;;11.60;99.90;;;;;;5015334;28;20450;-64
2023/10/27 02:55:56;;;;;;;27.50;13.80;;;11.60;99.90;;;;;;5016050;28;20450;-66
2023/10/27 02:58:23;;;;;;;27.40;13.40;;;11.60;99.90;;;;;;5015659;28;20500;-63
2023/10/27 03:00:50;;;;;;;24.77;13.07;;;11.60;99.90;;;;;;5015913;28;20464;-65
2023/10/27 03:03:17;;;;;;;20.37;12.43;;;11.60;99.90;;;;;;5015532;28;20465;-62
2023/10/27 03:05:49;;;;;;;23.93;12.60;;;11.60;99.90;;;;;;5016126;28;20450;-64
2023/10/27 03:08:16;;;;;;;26.60;13.20;;;11.70;99.90;;;;;;5015431;28;20497;-67
2023/10/27 03:10:43;;;;;;;21.90;12.37;;;11.60;99.90;;;;;;5018733;28;20426;-60
2023/10/27 03:13:10;;;;;;;27.80;13.10;;;11.60;99.90;;;;;;5020134;28;20442;-66
2023/10/27 03:15:37;;;;;;;27.73;15.40;;;11.60;99.90;;;;;;5019825;28;20450;-65
2023/10/27 03:18:04;;;;;;;29.33;14.13;;;11.60;99.90;;;;;;5020078;28;20447;-61
2023/10/27 03:20:31;;;;;;;27.87;13.57;;;11.60;99.90;;;;;;5020023;28;20442;-60
2023/10/27 03:22:59;;;;;;;26.00;14.30;;;11.60;99.90;;;;;;5020038;28;20532;-63
2023/10/27 03:25:26;;;;;;;33.17;13.70;;;11.60;99.90;;;;;;5019669;28;21005;-65
2023/10/27 03:27:52;;;;;;;28.37;13.90;;;11.60;99.90;;;;;;5019985;28;20460;-58
2023/10/27 03:30:19;;;;;;;27.57;14.77;;;11.60;99.90;;;;;;5020234;28;20456;-61
2023/10/27 03:32:46;;;;;;;28.47;15.67;;;11.60;99.90;;;;;;5020070;28;20505;-60
2023/10/27 03:35:14;;;;;;;30.37;15.60;;;11.60;99.90;;;;;;5019559;28;20430;-61
2023/10/27 03:37:41;;;;;;;31.67;14.57;;;11.60;99.90;;;;;;5019414;28;20446;-58
2023/10/27 03:40:11;;;;;;;25.80;12.33;;;11.60;99.90;;;;;;5019180;28;20465;-66
2023/10/27 03:42:37;;;;;;;30.40;13.20;;;11.60;99.90;;;;;;5019031;28;20449;-60
2023/10/27 03:45:05;;;;;;;28.30;13.20;;;11.70;99.90;;;;;;5018429;28;20518;-61
2023/10/27 03:47:32;;;;;;;29.83;13.37;;;11.70;99.90;;;;;;5018054;28;20442;-61
2023/10/27 03:49:59;;;;;;;23.40;12.63;;;11.60;99.90;;;;;;5018664;28;20497;-61
2023/10/27 03:52:26;;;;;;;27.90;13.77;;;11.60;99.90;;;;;;5018776;28;20460;-64
2023/10/27 03:54:53;;;;;;;28.97;15.33;;;11.60;99.90;;;;;;5019265;28;20438;-63
2023/10/27 03:57:22;;;;;;;23.67;12.90;;;11.60;99.90;;;;;;5018737;28;20477;-65
2023/10/27 03:59:49;;;;;;;25.67;12.60;;;11.60;99.90;;;;;;5018940;28;20446;-63
2023/10/27 04:02:16;;;;;;;43.40;15.80;;;11.60;99.90;;;;;;5017714;28;20481;-61
2023/10/27 04:04:43;;;;;;;26.40;12.80;;;11.60;99.90;;;;;;5018319;28;20565;-62
2023/10/27 04:07:11;;;;;;;22.47;11.60;;;11.60;99.90;;;;;;5018502;28;20469;-63
2023/10/27 04:09:38;;;;;;;21.97;11.73;;;11.60;99.90;;;;;;5018571;28;20454;-64
2023/10/27 04:12:07;;;;;;;22.20;11.80;;;11.60;99.90;;;;;;5019123;28;20453;-67
2023/10/27 04:14:35;;;;;;;30.67;13.93;;;11.60;99.90;;;;;;5018434;28;20454;-64
2023/10/27 04:17:02;;;;;;;21.50;12.80;;;11.60;99.90;;;;;;5018424;28;20454;-65
2023/10/27 04:19:29;;;;;;;24.50;12.43;;;11.60;99.90;;;;;;5017582;28;20478;-67
2023/10/27 04:21:56;;;;;;;22.77;11.30;;;11.50;99.90;;;;;;5016615;28;20454;-62
2023/10/27 04:24:23;;;;;;;24.20;10.83;;;11.50;99.90;;;;;;5017807;28;20485;-64
2023/10/27 04:26:50;;;;;;;23.07;11.43;;;11.50;99.90;;;;;;5018348;28;20454;-67
2023/10/27 04:29:17;;;;;;;20.37;11.27;;;11.50;99.90;;;;;;5018462;28;20473;-65
2023/10/27 04:31:46;;;;;;;27.20;11.27;;;11.50;99.90;;;;;;5018615;28;20481;-61
2023/10/27 04:34:15;;;;;;;23.47;11.47;;;11.50;99.90;;;;;;5017985;28;20446;-66
2023/10/27 04:36:43;;;;;;;29.63;11.37;;;11.50;99.90;;;;;;5018125;28;20485;-67
2023/10/27 04:39:10;;;;;;;19.17;10.10;;;11.60;99.90;;;;;;5018786;28;20478;-66
2023/10/27 04:41:37;;;;;;;20.37;12.53;;;11.60;99.90;;;;;;5019092;28;20437;-65
2023/10/27 04:44:04;;;;;;;23.37;11.67;;;11.50;99.90;;;;;;5019148;28;20510;-68
2023/10/27 04:46:31;;;;;;;23.40;11.63;;;11.50;99.90;;;;;;5019514;28;20460;-65
2023/10/27 04:48:59;;;;;;;23.97;11.60;;;11.50;99.90;;;;;;5019328;28;20482;-64
2023/10/27 04:51:26;;;;;;;22.80;12.63;;;11.50;99.90;;;;;;5018772;28;20411;-64
2023/10/27 04:53:53;;;;;;;21.87;10.53;;;11.50;99.90;;;;;;5018429;28;20441;-61
2023/10/27 04:56:20;;;;;;;29.47;13.40;;;11.50;99.90;;;;;;5018493;28;20502;-58
2023/10/27 04:58:48;;;;;;;21.17;11.63;;;11.50;99.90;;;;;;5018684;28;20440;-65
2023/10/27 05:01:22;;;;;;;25.47;13.20;;;11.50;99.90;;;;;;5018388;28;20446;-65
2023/10/27 05:03:50;;;;;;;19.60;11.47;;;11.50;99.90;;;;;;5017467;28;20446;-64
2023/10/27 05:06:21;;;;;;;22.50;11.27;;;11.40;99.90;;;;;;5017781;28;20457;-66
2023/10/27 05:08:48;;;;;;;20.53;11.13;;;11.40;99.90;;;;;;5017552;28;20464;-63
2023/10/27 05:11:15;;;;;;;30.03;14.70;;;11.40;99.90;;;;;;5017199;28;20438;-65
2023/10/27 05:13:41;;;;;;;23.90;11.23;;;11.40;99.90;;;;;;5016919;28;20457;-68
2023/10/27 05:16:09;;;;;;;26.13;13.97;;;11.40;99.90;;;;;;5016851;28;20445;-65
2023/10/27 05:18:37;;;;;;;32.07;12.73;;;11.40;99.90;;;;;;5017103;28;20450;-66
2023/10/27 05:21:04;;;;;;;25.57;12.30;;;11.40;99.90;;;;;;5017456;28;20485;-64
2023/10/27 05:23:33;;;;;;;28.93;14.70;;;11.40;99.90;;;;;;5017929;28;20503;-66
2023/10/27 05:25:59;;;;;;;23.27;12.90;;;11.40;99.90;;;;;;5018323;28;20489;-67
2023/10/27 05:28:26;;;;;;;28.40;12.23;;;11.40;99.90;;;;;;5017030;28;20449;-65
2023/10/27 05:30:54;;;;;;;25.00;12.43;;;11.40;99.90;;;;;;5016845;28;20462;-63
2023/10/27 05:33:23;;;;;;;26.03;11.87;;;11.40;99.90;;;;;;5017895;28;20473;-66
2023/10/27 05:35:50;;;;;;;26.87;13.20;;;11.50;99.90;;;;;;5017141;28;20514;-64
2023/10/27 05:38:18;;;;;;;24.17;12.23;;;11.50;99.90;;;;;;5001164;28;20455;-65
2023/10/27 05:40:46;;;;;;;32.67;13.90;;;11.50;99.90;;;;;;4996713;28;20526;-65
2023/10/27 05:43:16;;;;;;;27.30;13.60;;;11.50;99.90;;;;;;4997268;28;20455;-64
2023/10/27 05:45:43;;;;;;;25.90;13.47;;;11.50;99.90;;;;;;4997250;28;20486;-63
2023/10/27 05:48:10;;;;;;;25.97;11.67;;;11.50;99.90;;;;;;4997142;28;20469;-65
2023/10/27 05:50:37;;;;;;;24.60;12.50;;;11.50;99.90;;;;;;4996738;28;20470;-66
2023/10/27 05:53:04;;;;;;;29.17;13.40;;;11.50;99.90;;;;;;4999972;28;20524;-64
2023/10/27 05:55:31;;;;;;;25.70;12.53;;;11.50;99.90;;;;;;5015968;28;20465;-66
2023/10/27 05:57:59;;;;;;;27.63;12.97;;;11.50;99.90;;;;;;5015831;28;20469;-66
2023/10/27 06:00:27;;;;;;;28.30;14.47;;;11.50;99.90;;;;;;5015537;28;20453;-67
2023/10/27 06:02:54;;;;;;;24.00;12.10;;;11.50;99.90;;;;;;5015338;28;20473;-66
2023/10/27 06:05:21;;;;;;;30.47;14.37;;;11.50;99.90;;;;;;5016602;28;20486;-63
2023/10/27 06:07:48;;;;;;;32.03;13.60;;;11.50;99.90;;;;;;5016410;28;20509;-67
2023/10/27 06:10:15;;;;;;;21.80;11.07;;;11.50;99.90;;;;;;5016281;28;20477;-66
2023/10/27 06:12:42;;;;;;;26.03;10.93;;;11.50;99.90;;;;;;5016174;28;20473;-65
2023/10/27 06:15:11;;;;;;;20.47;10.80;;;11.40;99.90;;;;;;5016796;28;20458;-64
2023/10/27 06:17:38;;;;;;;29.60;13.93;;;11.40;99.90;;;;;;5016160;28;20508;-64
2023/10/27 06:20:06;;;;;;;29.80;16.80;;;11.40;99.90;;;;;;5015036;28;20449;-62
2023/10/27 06:22:34;;;;;;;26.83;12.07;;;11.40;99.90;;;;;;5015676;28;20453;-66
2023/10/27 06:25:00;;;;;;;27.27;12.20;;;11.40;99.90;;;;;;5016312;28;20545;-67
2023/10/27 06:27:27;;;;;;;29.50;14.20;;;11.40;99.90;;;;;;5016230;28;20474;-65
2023/10/27 06:29:54;;;;;;;27.13;11.67;;;11.40;99.90;;;;;;5016138;28;20445;-60
2023/10/27 06:32:23;;;;;;;24.80;12.03;;;11.40;99.90;;;;;;5010120;28;20551;-69
2023/10/27 06:34:50;;;;;;;24.20;12.20;;;11.40;99.90;;;;;;4996372;28;20529;-68
2023/10/27 06:37:16;;;;;;;29.63;13.70;;;11.50;99.90;;;;;;4994904;28;20509;-66
2023/10/27 06:39:43;;;;;;;28.30;11.93;;;11.50;99.90;;;;;;4989336;28;20967;-68
2023/10/27 06:42:10;;;;;;;33.60;13.40;;;11.50;99.90;;;;;;4995095;28;20473;-68
2023/10/27 06:44:37;;;;;;;34.23;12.30;;;11.50;99.90;;;;;;4995731;28;20568;-67
2023/10/27 06:47:04;;;;;;;35.60;13.23;;;11.50;99.90;;;;;;4999012;28;20557;-67
2023/10/27 06:49:32;;;;;;;29.00;13.33;;;11.50;99.90;;;;;;4997197;28;20505;-63
2023/10/27 06:51:59;;;;;;;25.63;13.07;;;11.50;99.90;;;;;;4997844;28;20544;-62
2023/10/27 06:54:26;;;;;;;19.50;11.80;;;11.50;99.90;;;;;;4998759;28;20485;-62
2023/10/27 06:56:54;;;;;;;29.47;11.93;;;11.50;99.90;;;;;;4998876;28;20458;-61
2023/10/27 06:59:22;;;;;;;24.87;11.20;;;11.50;99.90;;;;;;5021272;28;20457;-56
2023/10/27 07:01:49;;;;;;;27.17;11.90;;;11.60;99.90;;;;;;5022140;28;20415;-56
2023/10/27 07:04:17;;;;;;;25.73;13.60;;;11.60;99.90;;;;;;5022070;28;20429;-56
2023/10/27 07:06:45;;;;;;;28.83;16.20;;;11.60;99.90;;;;;;5022002;28;20472;-53
2023/10/27 07:09:12;;;;;;;33.40;14.87;;;11.60;99.90;;;;;;5021586;28;20440;-53
2023/10/27 07:11:41;;;;;;;30.73;13.13;;;11.60;99.90;;;;;;5022147;28;20425;-55
2023/10/27 07:14:08;;;;;;;27.10;14.13;;;11.70;99.90;;;;;;5021854;28;20468;-54
2023/10/27 07:16:35;;;;;;;25.30;12.73;;;11.70;99.90;;;;;;5020425;28;20457;-47
2023/10/27 07:19:03;;;;;;;29.43;14.67;;;11.70;99.90;;;;;;5019810;28;20442;-53
2023/10/27 07:21:30;;;;;;;23.80;12.43;;;11.70;99.90;;;;;;5022032;28;20482;-51
2023/10/27 07:24:00;;;;;;;32.53;13.30;;;11.70;99.90;;;;;;5020916;28;20505;-54
2023/10/27 07:26:27;;;;;;;27.07;16.97;;;11.70;99.90;;;;;;5016706;28;20450;-51
2023/10/27 07:28:54;;;;;;;28.33;14.93;;;11.80;99.90;;;;;;5021411;28;20484;-51
2023/10/27 07:31:23;;;;;;;28.10;13.47;;;11.80;99.90;;;;;;5021517;28;20517;-48
2023/10/27 07:33:53;;;;;;;25.37;12.30;;;11.80;99.90;;;;;;5018226;28;20497;-53
2023/10/27 07:36:20;;;;;;;25.40;13.80;;;11.80;99.90;;;;;;5020285;28;20454;-50
2023/10/27 07:38:49;;;;;;;30.93;15.03;;;11.80;99.90;;;;;;5019934;28;20446;-55
2023/10/27 07:41:17;;;;;;;26.77;12.87;;;11.90;99.90;;;;;;5021582;28;20411;-54
2023/10/27 07:43:47;;;;;;;28.97;16.60;;;11.90;99.90;;;;;;5020465;28;20445;-53
2023/10/27 07:46:14;;;;;;;27.03;12.07;;;11.90;99.90;;;;;;5021107;28;20486;-56
2023/10/27 07:48:41;;;;;;;22.73;12.73;;;11.90;99.90;;;;;;5021487;28;20410;-51
2023/10/27 07:51:08;;;;;;;20.27;12.00;;;11.90;99.90;;;;;;5020361;28;20417;-56
2023/10/27 07:53:35;;;;;;;26.20;12.97;;;11.90;99.90;;;;;;5020111;28;20449;-50
2023/10/27 07:56:04;;;;;;;27.30;13.30;;;11.90;99.90;;;;;;5019521;28;20446;-53
2023/10/27 07:58:32;;;;;;;25.80;12.37;;;11.90;99.90;;;;;;5020614;28;20449;-55
2023/10/27 08:00:59;;;;;;;26.17;12.83;;;11.90;99.90;;;;;;5006675;28;20546;-62
2023/10/27 08:03:28;;;;;;;24.83;13.10;;;11.90;99.90;;;;;;4996643;28;20975;-61
2023/10/27 08:05:54;;;;;;;22.63;12.37;;;11.90;99.90;;;;;;4997349;28;20524;-62
2023/10/27 08:08:22;;;;;;;25.73;13.57;;;12.00;99.90;;;;;;4996703;28;20497;-62
2023/10/27 08:10:49;;;;;;;28.03;13.23;;;12.00;99.90;;;;;;4997412;28;20485;-61
2023/10/27 08:13:16;;;;;;;23.30;14.10;;;11.90;99.90;;;;;;4997301;28;20909;-60
2023/10/27 08:15:45;;;;;;;23.53;11.90;;;12.00;99.90;;;;;;4996932;28;20462;-63
2023/10/27 08:18:13;;;;;;;28.03;13.80;;;12.00;99.90;;;;;;5005056;28;20497;-63
2023/10/27 08:20:40;;;;;;;22.03;11.87;;;12.00;99.90;;;;;;5017929;28;20492;-63
2023/10/27 08:23:07;;;;;;;29.00;12.37;;;12.10;99.90;;;;;;5017537;28;20473;-58
2023/10/27 08:25:34;;;;;;;23.30;13.13;;;12.10;99.90;;;;;;5017687;28;20470;-62
2023/10/27 08:28:01;;;;;;;27.53;11.67;;;12.10;99.90;;;;;;5017006;28;20502;-61
2023/10/27 08:30:28;;;;;;;22.73;12.93;;;12.10;99.90;;;;;;5016149;28;20439;-59
2023/10/27 08:32:56;;;;;;;20.80;11.83;;;12.10;99.90;;;;;;5015463;28;20434;-60
2023/10/27 08:35:23;;;;;;;21.33;11.80;;;12.10;99.90;;;;;;5015001;28;20501;-60
2023/10/27 08:37:50;;;;;;;23.60;13.40;;;12.10;99.90;;;;;;5014873;28;20791;-62
2023/10/27 08:40:17;;;;;;;23.27;12.60;;;12.00;99.90;;;;;;5015075;28;20492;-64
2023/10/27 08:42:47;;;;;;;23.33;11.43;;;12.10;99.90;;;;;;5014914;28;20545;-63
2023/10/27 08:45:15;;;;;;;23.27;11.67;;;12.10;99.90;;;;;;5011461;28;20482;-64
2023/10/27 08:47:42;;;;;;;17.47;11.17;;;12.00;99.90;;;;;;5007258;28;20454;-63
2023/10/27 08:50:11;;;;;;;23.23;11.33;;;12.00;99.90;;;;;;5016038;28;20446;-61
2023/10/27 08:52:39;;;;;;;19.00;10.73;;;12.00;99.90;;;;;;5004164;28;20497;-62
2023/10/27 08:55:09;;;;;;;18.90;10.73;;;12.00;99.90;;;;;;5017825;28;20481;-59
2023/10/27 08:57:36;;;;;;;17.17;11.60;;;12.00;99.90;;;;;;5017784;28;20458;-61
2023/10/27 09:00:05;;;;;;;20.27;11.97;;;12.00;99.90;;;;;;5016156;28;20611;-55
2023/10/27 09:02:33;;;;;;;16.17;10.83;;;12.00;99.90;;;;;;4997532;28;20466;-59
2023/10/27 09:05:04;;;;;;;21.97;11.77;;;11.90;99.90;;;;;;5006032;28;20465;-59
2023/10/27 09:07:34;;;;;;;21.10;12.57;;;11.90;99.90;;;;;;5016925;28;20474;-58
2023/10/27 09:10:02;;;;;;;22.97;13.20;;;12.00;99.90;;;;;;5017439;28;20461;-61
2023/10/27 09:12:31;;;;;;;17.93;10.40;;;12.00;99.90;;;;;;5016275;28;20516;-58
2023/10/27 09:15:00;;;;;;;23.00;10.87;;;12.10;99.90;;;;;;5017088;28;20437;-60
2023/10/27 09:17:29;;;;;;;21.13;11.00;;;12.10;99.90;;;;;;5017191;28;20460;-62
2023/10/27 09:20:10;;;;;;;20.07;11.30;;;12.10;99.90;;;;;;5017018;28;20480;-62
2023/10/27 09:22:40;;;;;;;17.53;12.07;;;12.10;99.90;;;;;;5017669;28;20442;-60
2023/10/27 09:25:17;;;;;;;15.83;10.23;;;12.10;99.90;;;;;;5017275;28;20477;-58
2023/10/27 09:27:45;;;;;;;18.87;9.53;;;12.10;99.90;;;;;;5012238;28;20538;-63
2023/10/27 09:30:13;;;;;;;19.03;11.93;;;12.10;99.90;;;;;;5016668;28;20445;-60
2023/10/27 09:32:42;;;;;;;21.67;12.37;;;12.10;99.90;;;;;;5016211;28;20458;-59
2023/10/27 09:35:10;;;;;;;24.17;12.07;;;12.10;99.90;;;;;;5016056;28;20442;-60
2023/10/27 09:37:38;;;;;;;23.57;11.50;;;12.00;99.90;;;;;;5016156;28;20422;-62
2023/10/27 09:40:08;;;;;;;21.07;13.00;;;12.00;99.90;;;;;;5014145;28;20484;-62
2023/10/27 09:42:38;;;;;;;25.43;11.70;;;12.10;99.90;;;;;;4996906;28;20481;-60
2023/10/27 09:45:11;;;;;;;27.03;12.40;;;12.10;99.90;;;;;;5004706;28;20492;-60
2023/10/27 09:47:47;;;;;;;32.30;14.10;;;12.10;99.90;;;;;;5015952;28;20473;-62
2023/10/27 09:50:15;;;;;;;22.63;13.60;;;12.20;99.90;;;;;;5016761;28;20469;-60
2023/10/27 09:52:45;;;;;;;23.37;14.73;;;12.30;99.90;;;;;;5017618;28;20470;-56
2023/10/27 09:55:14;;;;;;;24.67;13.37;;;12.30;99.90;;;;;;5015294;28;20454;-60
2023/10/27 09:57:42;;;;;;;24.23;12.37;;;12.40;99.90;;;;;;4999149;28;20431;-60
2023/10/27 10:00:13;;;;;;;25.90;14.37;;;12.40;99.90;;;;;;5016619;28;20526;-56
2023/10/27 10:02:42;;;;;;;21.70;11.90;;;12.40;99.90;;;;;;5015749;28;20490;-57
2023/10/27 10:05:11;;;;;;;23.33;11.40;;;12.50;99.90;;;;;;5016662;28;20478;-61
2023/10/27 10:07:41;;;;;;;17.83;12.30;;;12.50;99.90;;;;;;5015703;28;20492;-60
2023/10/27 10:10:26;;;;;;;21.50;12.53;;;12.50;99.90;;;;;;5016125;28;20481;-56
2023/10/27 10:13:04;;;;;;;24.23;11.00;;;12.50;99.90;;;;;;5016333;28;20431;-58
2023/10/27 10:15:33;;;;;;;19.80;12.93;;;12.50;99.90;;;;;;5016324;28;20504;-59
2023/10/27 10:18:00;;;;;;;20.63;12.20;;;12.50;99.90;;;;;;5016140;28;20481;-64
2023/10/27 10:20:58;;;;;;;21.10;11.90;;;12.50;99.90;;;;;;5017286;28;20442;-63
2023/10/27 10:23:41;;;;;;;19.23;10.67;;;12.50;99.90;;;;;;5013330;28;20457;-63
2023/10/27 10:26:09;;;;;;;19.33;10.60;;;12.50;99.90;;;;;;5017689;28;20508;-61
2023/10/27 10:28:38;;;;;;;21.90;10.70;;;12.50;99.90;;;;;;5017921;28;20430;-60
2023/10/27 10:31:32;;;;;;;20.33;10.00;;;12.50;99.90;;;;;;5017015;28;20442;-61
2023/10/27 10:34:12;;;;;;;21.77;11.20;;;12.50;99.90;;;;;;5017705;28;20441;-57
2023/10/27 10:36:41;;;;;;;35.57;20.37;;;12.50;99.90;;;;;;5017388;28;20449;-60
2023/10/27 10:39:13;;;;;;;17.07;12.07;;;12.50;99.90;;;;;;5017314;28;20529;-65
2023/10/27 10:41:59;;;;;;;18.23;11.33;;;12.50;99.90;;;;;;5016945;28;20450;-54
2023/10/27 10:44:30;;;;;;;15.17;10.27;;;12.50;99.90;;;;;;4998398;28;20464;-61
2023/10/27 10:47:00;;;;;;;16.53;9.67;;;12.40;99.90;;;;;;5000052;28;20494;-61
2023/10/27 10:49:31;;;;;;;13.10;8.50;;;12.40;99.90;;;;;;5017347;28;20456;-61
2023/10/27 10:52:05;;;;;;;15.27;9.57;;;12.40;99.90;;;;;;5017580;28;20440;-56
2023/10/27 10:54:33;;;;;;;16.37;8.80;;;12.50;99.90;;;;;;5017310;28;20461;-59
2023/10/27 10:57:03;;;;;;;14.73;8.57;;;12.40;99.90;;;;;;5017488;28;20450;-59
2023/10/27 10:59:33;;;;;;;15.27;8.63;;;12.40;99.90;;;;;;5017286;28;20938;-59
2023/10/27 11:02:01;;;;;;;13.20;9.23;;;12.40;99.90;;;;;;5017059;28;20485;-49
2023/10/27 11:04:35;;;;;;;11.17;7.57;;;12.40;99.90;;;;;;5015819;28;20470;-60
2023/10/27 11:07:03;;;;;;;11.90;8.53;;;12.40;99.90;;;;;;5017548;28;20516;-61
2023/10/27 11:09:32;;;;;;;14.70;7.30;;;12.40;99.90;;;;;;5017606;28;20458;-60
2023/10/27 11:12:00;;;;;;;11.23;7.83;;;12.50;99.90;;;;;;5016993;28;20441;-59
2023/10/27 11:14:28;;;;;;;10.67;7.60;;;12.50;99.90;;;;;;5014968;28;20485;-70
2023/10/27 11:16:59;;;;;;;11.37;7.50;;;12.40;99.90;;;;;;5016987;28;20458;-69
2023/10/27 11:19:26;;;;;;;10.47;6.53;;;12.40;99.90;;;;;;5016004;28;20466;-68
2023/10/27 11:21:54;;;;;;;11.27;7.10;;;12.50;99.90;;;;;;5014607;28;20497;-65
2023/10/27 11:24:22;;;;;;;11.27;6.63;;;12.40;99.90;;;;;;5016811;28;20525;-64
2023/10/27 11:26:49;;;;;;;9.60;5.40;;;12.50;99.90;;;;;;5014705;28;20486;-64
2023/10/27 11:29:18;;;;;;;11.70;6.50;;;12.50;99.90;;;;;;5016278;28;20469;-61
2023/10/27 11:31:47;;;;;;;13.47;6.03;;;12.50;99.90;;;;;;5018106;28;20485;-61
2023/10/27 11:34:20;;;;;;;10.70;6.23;;;12.50;99.90;;;;;;5018979;28;20441;-60
2023/10/27 11:37:00;;;;;;;13.87;7.73;;;12.50;99.90;;;;;;5019007;28;20445;-52
2023/10/27 11:39:27;;;;;;;10.33;6.23;;;12.50;99.90;;;;;;5018636;28;20489;-58
2023/10/27 11:42:00;;;;;;;9.90;6.90;;;12.50;99.90;;;;;;5019033;28;20458;-55
2023/10/27 11:44:30;;;;;;;10.37;8.00;;;12.50;99.90;;;;;;5018101;28;20433;-58
2023/10/27 11:47:00;;;;;;;13.03;5.50;;;12.50;99.90;;;;;;5018630;28;20486;-60
2023/10/27 11:49:28;;;;;;;8.03;5.83;;;12.50;99.90;;;;;;5020099;28;20500;-61
2023/10/27 11:51:56;;;;;;;10.57;5.87;;;12.50;99.90;;;;;;5020031;28;20477;-61
2023/10/27 11:54:25;;;;;;;11.40;6.67;;;12.40;99.90;;;;;;5019445;28;20454;-61
2023/10/27 11:56:52;;;;;;;15.43;6.80;;;12.40;99.90;;;;;;5020215;28;20442;-62
2023/10/27 11:59:24;;;;;;;10.00;6.17;;;12.40;99.90;;;;;;5019401;28;20465;-68
2023/10/27 12:01:51;;;;;;;10.10;6.90;;;12.40;99.90;;;;;;5019420;28;20449;-65
2023/10/27 12:04:20;;;;;;;11.40;7.23;;;12.40;99.90;;;;;;5018697;28;20488;-61
2023/10/27 12:06:52;;;;;;;12.87;7.27;;;12.40;99.90;;;;;;5017918;28;20478;-71
2023/10/27 12:09:19;;;;;;;9.83;5.97;;;12.40;99.90;;;;;;5019101;28;20466;-68
2023/10/27 12:11:47;;;;;;;14.87;7.63;;;12.40;99.90;;;;;;5019489;28;20469;-60
2023/10/27 12:14:14;;;;;;;11.03;7.70;;;12.40;99.90;;;;;;5016159;28;20481;-64
2023/10/27 12:16:43;;;;;;;9.37;7.03;;;12.50;99.90;;;;;;5018537;28;20446;-58
2023/10/27 12:19:14;;;;;;;10.60;6.87;;;12.50;99.90;;;;;;5018238;28;20810;-59
2023/10/27 12:21:42;;;;;;;9.93;6.20;;;12.50;99.90;;;;;;5017822;28;20533;-63
2023/10/27 12:24:11;;;;;;;11.90;7.37;;;12.50;99.90;;;;;;5018175;28;20446;-65
2023/10/27 12:26:38;;;;;;;12.00;7.10;;;12.50;99.90;;;;;;5015026;28;20490;-63
2023/10/27 12:29:05;;;;;;;13.97;8.70;;;12.50;99.90;;;;;;5018900;28;20493;-61
2023/10/27 12:31:33;;;;;;;11.20;7.07;;;12.50;99.90;;;;;;5019211;28;20666;-63
2023/10/27 12:34:00;;;;;;;11.23;7.10;;;12.50;99.90;;;;;;5013293;28;20487;-65